Time;durP1;ratioP1;P1;durP2;ratioP2;P2;SDS_P1;SDS_P2;PMS_P1;PMS_P2;Temp;Humidity;BMP_temperature;BMP_pressure;BME280_temperature;BME280_humidity;BME280_pressure;Samples;Min_cycle;Max_cycle;Signal;HPM_P1;HPM_P2
2021/09/28 00:00:43;;;;;;;;;;;12.80;99.90;;;;;;5049548;28;19919;-80
2021/09/28 00:03:08;;;;;;;;;;;12.80;99.90;;;;;;5055511;28;20007;-81
2021/09/28 00:05:34;;;;;;;;;;;12.80;99.90;;;;;;5051196;28;20297;-80
2021/09/28 00:08:00;;;;;;;;;;;12.80;99.90;;;;;;5051609;28;20294;-80
2021/09/28 00:10:25;;;;;;;;;;;12.80;99.90;;;;;;5026239;28;20332;-73
2021/09/28 00:12:51;;;;;;;;;;;12.90;99.90;;;;;;5055464;28;20212;-81
2021/09/28 00:15:17;;;;;;;;;;;12.90;99.90;;;;;;5053335;28;20219;-80
2021/09/28 00:17:43;;;;;;;;;;;13.00;99.90;;;;;;5052955;28;19992;-81
2021/09/28 00:20:09;;;;;;;;;;;13.00;99.90;;;;;;5053478;28;20369;-80
2021/09/28 00:22:35;;;;;;;;;;;13.00;99.90;;;;;;5053894;28;20319;-78
2021/09/28 00:25:01;;;;;;;;;;;13.10;99.90;;;;;;5053479;28;20041;-80
2021/09/28 00:27:27;;;;;;;;;;;13.20;99.90;;;;;;5048568;28;20075;-79
2021/09/28 00:29:52;;;;;;;;;;;13.30;99.90;;;;;;5053432;28;19917;-80
2021/09/28 00:32:18;;;;;;;;;;;13.30;99.90;;;;;;5053340;28;19913;-80
2021/09/28 00:34:45;;;;;;;;;;;13.40;99.90;;;;;;5052929;28;19971;-80
2021/09/28 00:37:10;;;;;;;;;;;13.40;99.90;;;;;;5035329;28;19913;-81
2021/09/28 00:39:36;;;;;;;;;;;13.30;99.90;;;;;;5048725;28;20281;-79
2021/09/28 00:42:02;;;;;;;;;;;13.30;99.90;;;;;;5053593;28;19913;-80
2021/09/28 00:44:42;;;;;;;;;;;13.30;99.90;;;;;;5053205;28;20334;-79
2021/09/28 00:47:10;;;;;;;;;;;13.30;99.90;;;;;;5035262;28;19951;-80
2021/09/28 00:49:38;;;;;;;;;;;13.30;99.90;;;;;;5053861;28;19925;-74
2021/09/28 00:52:04;;;;;;;;;;;13.30;99.90;;;;;;5052772;28;19927;-80
2021/09/28 00:54:31;;;;;;;;;;;13.30;99.90;;;;;;5055219;28;19980;-80
2021/09/28 00:56:57;;;;;;;;;;;13.30;99.90;;;;;;5053592;28;19917;-79
2021/09/28 00:59:23;;;;;;;;;;;13.30;99.90;;;;;;5044003;28;19928;-79
2021/09/28 01:01:49;;;;;;;;;;;13.30;99.90;;;;;;5052748;28;19917;-80
2021/09/28 01:04:16;;;;;;;;;;;13.20;99.90;;;;;;5053598;28;20228;-81
2021/09/28 01:06:45;;;;;;;;;;;13.30;99.90;;;;;;5053602;28;19920;-80
2021/09/28 01:09:11;;;;;;;;;;;13.20;99.90;;;;;;5051392;28;19928;-80
2021/09/28 01:11:40;;;;;;;;;;;13.20;99.90;;;;;;5035308;28;19913;-80
2021/09/28 01:14:06;;;;;;;;;;;13.20;99.90;;;;;;5053572;28;20300;-78
2021/09/28 01:16:32;;;;;;;;;;;13.10;99.90;;;;;;5052848;28;19966;-79
2021/09/28 01:18:57;;;;;;;;;;;13.10;99.90;;;;;;5052813;28;19921;-80
2021/09/28 01:21:23;;;;;;;;;;;13.10;99.90;;;;;;5052884;28;19917;-80
2021/09/28 01:23:49;;;;;;;;;;;13.10;99.90;;;;;;5054999;28;19953;-80
2021/09/28 01:26:23;;;;;;;;;;;13.00;99.90;;;;;;5056126;28;19951;-78
2021/09/28 01:28:52;;;;;;;;;;;13.00;99.90;;;;;;5055796;28;20275;-81
2021/09/28 01:31:18;;;;;;;;;;;13.00;99.90;;;;;;5054697;28;19919;-80
2021/09/28 01:33:44;;;;;;;;;;;13.00;99.90;;;;;;5052237;28;20353;-80
2021/09/28 01:36:10;;;;;;;;;;;12.90;99.90;;;;;;5054595;28;19916;-80
2021/09/28 01:38:35;;;;;;;;;;;12.90;99.90;;;;;;5056642;28;19935;-75
2021/09/28 01:41:02;;;;;;;;;;;12.90;99.90;;;;;;5056354;28;20030;-80
2021/09/28 01:43:27;;;;;;;;;;;12.90;99.90;;;;;;5056988;28;20337;-79
2021/09/28 01:45:54;;;;;;;;;;;12.80;99.90;;;;;;5051601;28;20007;-79
2021/09/28 01:48:19;;;;;;;;;;;12.80;99.90;;;;;;5051351;28;20088;-79
2021/09/28 01:50:45;;;;;;;;;;;12.80;99.90;;;;;;5058448;28;20022;-74
2021/09/28 01:53:11;;;;;;;;;;;12.80;99.90;;;;;;5056315;28;19916;-79
2021/09/28 01:55:36;;;;;;;;;;;12.80;99.90;;;;;;5053647;28;19935;-79
2021/09/28 01:58:02;;;;;;;;;;;12.80;99.90;;;;;;5037352;28;20010;-79
2021/09/28 02:00:28;;;;;;;;;;;12.70;99.90;;;;;;5055879;28;19960;-79
2021/09/28 02:02:54;;;;;;;;;;;12.70;99.90;;;;;;5053127;28;19913;-79
2021/09/28 02:05:20;;;;;;;;;;;12.70;99.90;;;;;;5053605;28;20543;-80
2021/09/28 02:07:46;;;;;;;;;;;12.70;99.90;;;;;;5038930;28;19920;-75
2021/09/28 02:10:11;;;;;;;;;;;12.70;99.90;;;;;;5055782;28;20227;-79
2021/09/28 02:12:38;;;;;;;;;;;12.60;99.90;;;;;;5056235;28;19932;-80
2021/09/28 02:15:04;;;;;;;;;;;12.60;99.90;;;;;;5056650;28;19920;-80
2021/09/28 02:17:29;;;;;;;;;;;12.60;99.90;;;;;;5055557;28;19913;-79
2021/09/28 02:19:55;;;;;;;;;;;12.70;99.90;;;;;;5053096;28;19921;-79
2021/09/28 02:22:20;;;;;;;;;;;12.60;99.90;;;;;;5052772;28;20013;-79
2021/09/28 02:24:46;;;;;;;;;;;12.60;99.90;;;;;;5055523;28;20201;-79
2021/09/28 02:27:14;;;;;;;;;;;12.60;99.90;;;;;;5055425;28;19920;-80
2021/09/28 02:29:40;;;;;;;;;;;12.60;99.90;;;;;;5038011;28;20312;-79
2021/09/28 02:32:05;;;;;;;;;;;12.50;99.90;;;;;;5054691;28;19920;-80
2021/09/28 02:34:35;;;;;;;;;;;12.50;99.90;;;;;;5055081;28;19917;-79
2021/09/28 02:37:04;;;;;;;;;;;12.50;99.90;;;;;;5053197;28;20292;-79
2021/09/28 02:39:30;;;;;;;;;;;12.50;99.90;;;;;;5056312;28;19927;-79
2021/09/28 02:41:56;;;;;;;;;;;12.50;99.90;;;;;;5053551;28;19917;-78
2021/09/28 02:44:22;;;;;;;;;;;12.40;99.90;;;;;;5055839;28;19912;-80
2021/09/28 02:46:47;;;;;;;;;;;12.40;99.90;;;;;;5055635;28;19913;-79
2021/09/28 02:49:13;;;;;;;;;;;12.40;99.90;;;;;;5053874;28;19924;-79
2021/09/28 02:51:39;;;;;;;;;;;12.30;99.90;;;;;;5059070;28;19917;-80
2021/09/28 02:54:05;;;;;;;;;;;12.30;99.90;;;;;;5037288;28;19960;-80
2021/09/28 02:56:31;;;;;;;;;;;12.20;99.90;;;;;;5054781;28;20292;-80
2021/09/28 02:58:56;;;;;;;;;;;12.20;99.90;;;;;;5052480;28;19924;-80
2021/09/28 03:01:22;;;;;;;;;;;12.20;99.90;;;;;;5054402;28;19913;-80
2021/09/28 03:03:48;;;;;;;;;;;12.10;99.90;;;;;;5048370;28;19975;-80
2021/09/28 03:06:13;;;;;;;;;;;12.10;99.90;;;;;;5055492;28;19919;-79
2021/09/28 03:08:39;;;;;;;;;;;12.10;99.90;;;;;;5036790;28;19913;-79
2021/09/28 03:11:05;;;;;;;;;;;12.10;99.90;;;;;;5054666;28;19925;-79
2021/09/28 03:13:30;;;;;;;;;;;12.10;99.90;;;;;;5055087;28;19913;-79
2021/09/28 03:15:56;;;;;;;;;;;12.10;99.90;;;;;;5036703;28;19948;-78
2021/09/28 03:18:21;;;;;;;;;;;12.20;99.90;;;;;;5053928;28;19956;-80
2021/09/28 03:20:47;;;;;;;;;;;12.10;99.90;;;;;;5055214;28;19912;-79
2021/09/28 03:23:13;;;;;;;;;;;12.10;99.90;;;;;;5054324;28;19917;-79
2021/09/28 03:25:41;;;;;;;;;;;12.10;99.90;;;;;;5037094;28;19978;-79
2021/09/28 03:28:07;;;;;;;;;;;12.10;99.90;;;;;;5041156;28;20008;-79
2021/09/28 03:30:33;;;;;;;;;;;12.10;99.90;;;;;;5054845;28;19921;-79
2021/09/28 03:32:59;;;;;;;;;;;12.10;99.90;;;;;;5036668;28;19921;-79
2021/09/28 03:35:25;;;;;;;;;;;12.10;99.90;;;;;;5036154;28;20267;-79
2021/09/28 03:37:53;;;;;;;;;;;12.10;99.90;;;;;;5036145;28;19924;-80
2021/09/28 03:40:18;;;;;;;;;;;12.10;99.90;;;;;;5036532;28;19924;-79
2021/09/28 03:42:44;;;;;;;;;;;12.10;99.90;;;;;;5074356;28;19913;-79
2021/09/28 03:45:10;;;;;;;;;;;12.10;99.90;;;;;;5054720;28;19913;-79
2021/09/28 03:47:35;;;;;;;;;;;12.00;99.90;;;;;;5035653;28;19916;-74
2021/09/28 03:50:02;;;;;;;;;;;12.00;99.90;;;;;;5054275;28;19917;-80
2021/09/28 03:52:27;;;;;;;;;;;12.00;99.90;;;;;;5037096;28;19979;-79
2021/09/28 03:54:53;;;;;;;;;;;12.00;99.90;;;;;;5036240;28;20267;-79
2021/09/28 03:57:19;;;;;;;;;;;12.00;99.90;;;;;;5053886;28;19944;-79
2021/09/28 03:59:46;;;;;;;;;;;12.00;99.90;;;;;;5053862;28;19920;-79
2021/09/28 04:02:12;;;;;;;;;;;12.00;99.90;;;;;;5035178;28;19913;-79
2021/09/28 04:04:38;;;;;;;;;;;11.90;99.90;;;;;;5053545;28;19924;-78
2021/09/28 04:07:04;;;;;;;;;;;11.90;99.90;;;;;;5052642;28;19913;-78
2021/09/28 04:09:29;;;;;;;;;;;11.90;99.90;;;;;;5053339;28;20219;-78
2021/09/28 04:11:55;;;;;;;;;;;11.90;99.90;;;;;;5035654;28;19912;-78
2021/09/28 04:14:21;;;;;;;;;;;11.80;99.90;;;;;;5054112;28;19955;-79
2021/09/28 04:16:46;;;;;;;;;;;11.90;99.90;;;;;;5053355;28;19924;-78
2021/09/28 04:19:12;;;;;;;;;;;11.90;99.90;;;;;;5054174;28;20063;-78
2021/09/28 04:21:39;;;;;;;;;;;11.90;99.90;;;;;;5069112;28;19920;-78
2021/09/28 04:24:05;;;;;;;;;;;11.90;99.90;;;;;;5058010;28;19960;-79
2021/09/28 04:26:32;;;;;;;;;;;11.80;99.90;;;;;;5053911;28;19917;-79
2021/09/28 04:28:57;;;;;;;;;;;11.90;99.90;;;;;;5052455;28;19928;-79
2021/09/28 04:31:23;;;;;;;;;;;11.90;99.90;;;;;;5053565;28;19912;-78
2021/09/28 04:33:48;;;;;;;;;;;11.90;99.90;;;;;;5053701;28;20330;-77
2021/09/28 04:36:14;;;;;;;;;;;11.90;99.90;;;;;;5035573;28;19917;-78
2021/09/28 04:38:40;;;;;;;;;;;11.90;99.90;;;;;;5053210;28;20173;-77
2021/09/28 04:41:05;;;;;;;;;;;11.80;99.90;;;;;;5053238;28;20601;-75
2021/09/28 04:43:31;;;;;;;;;;;11.80;99.90;;;;;;5047033;28;19952;-79
2021/09/28 04:45:57;;;;;;;;;;;11.80;99.90;;;;;;5035573;28;20251;-79
2021/09/28 04:48:23;;;;;;;;;;;11.80;99.90;;;;;;5047861;28;19966;-79
2021/09/28 04:50:49;;;;;;;;;;;11.80;99.90;;;;;;5048186;28;19952;-78
2021/09/28 04:53:15;;;;;;;;;;;11.80;99.90;;;;;;5035306;28;19916;-79
2021/09/28 04:55:41;;;;;;;;;;;11.80;99.90;;;;;;5030098;28;19917;-79
2021/09/28 04:58:07;;;;;;;;;;;11.80;99.90;;;;;;5042617;28;19917;-79
2021/09/28 05:00:32;;;;;;;;;;;11.80;99.90;;;;;;5055829;28;19912;-78
2021/09/28 05:02:58;;;;;;;;;;;11.70;99.90;;;;;;5058911;28;20260;-79
2021/09/28 05:05:23;;;;;;;;;;;11.80;99.90;;;;;;5063603;28;19973;-79
2021/09/28 05:07:49;;;;;;;;;;;11.80;99.90;;;;;;5063953;28;19986;-79
2021/09/28 05:10:15;;;;;;;;;;;11.70;99.90;;;;;;5045727;28;19920;-79
2021/09/28 05:12:41;;;;;;;;;;;11.70;99.90;;;;;;5062097;28;19959;-78
2021/09/28 05:15:06;;;;;;;;;;;11.70;99.90;;;;;;5062170;28;20030;-76
2021/09/28 05:17:32;;;;;;;;;;;11.70;99.90;;;;;;5060259;28;19932;-79
2021/09/28 05:19:58;;;;;;;;;;;11.70;99.90;;;;;;5048180;28;19936;-79
2021/09/28 05:22:23;;;;;;;;;;;11.80;99.90;;;;;;5043675;28;19920;-78
2021/09/28 05:24:49;;;;;;;;;;;11.80;99.90;;;;;;5062705;28;20016;-79
2021/09/28 05:27:15;;;;;;;;;;;11.80;99.90;;;;;;5064855;28;20618;-79
2021/09/28 05:29:40;;;;;;;;;;;11.80;99.90;;;;;;5060075;28;19922;-79
2021/09/28 05:32:06;;;;;;;;;;;11.80;99.90;;;;;;5066705;28;19924;-80
2021/09/28 05:34:32;;;;;;;;;;;11.80;99.90;;;;;;5062765;28;20547;-79
2021/09/28 05:36:58;;;;;;;;;;;11.80;99.90;;;;;;5039058;28;19913;-78
2021/09/28 05:39:24;;;;;;;;;;;11.80;99.90;;;;;;5060319;28;20310;-79
2021/09/28 05:41:49;;;;;;;;;;;11.80;99.90;;;;;;5055848;28;20316;-78
2021/09/28 05:44:15;;;;;;;;;;;11.80;99.90;;;;;;5059106;28;19927;-78
2021/09/28 05:46:41;;;;;;;;;;;11.70;99.90;;;;;;5056281;28;19923;-78
2021/09/28 05:49:06;;;;;;;;;;;11.70;99.90;;;;;;5065322;28;19912;-78
2021/09/28 05:51:33;;;;;;;;;;;11.70;99.90;;;;;;5045895;28;19920;-80
2021/09/28 05:54:01;;;;;;;;;;;11.70;99.90;;;;;;5046607;28;19978;-79
2021/09/28 05:56:26;;;;;;;;;;;11.70;99.90;;;;;;5064666;28;19924;-77
2021/09/28 05:58:52;;;;;;;;;;;11.70;99.90;;;;;;5059591;28;19925;-78
2021/09/28 06:01:18;;;;;;;;;;;11.70;99.90;;;;;;5067623;28;19912;-78
2021/09/28 06:03:43;;;;;;;;;;;11.70;99.90;;;;;;5053231;28;19912;-78
2021/09/28 06:06:09;;;;;;;;;;;11.70;99.90;;;;;;5054769;28;19995;-79
2021/09/28 06:08:35;;;;;;;;;;;11.70;99.90;;;;;;5036266;28;19932;-80
2021/09/28 06:11:01;;;;;;;;;;;11.70;99.90;;;;;;5052098;28;19921;-79
2021/09/28 06:13:27;;;;;;;;;;;11.70;99.90;;;;;;5051151;28;20019;-79
2021/09/28 06:15:53;;;;;;;;;;;11.70;99.90;;;;;;5059579;28;20007;-79
2021/09/28 06:18:19;;;;;;;;;;;11.70;99.90;;;;;;5064414;28;19913;-79
2021/09/28 06:20:45;;;;;;;;;;;11.70;99.90;;;;;;5064872;28;20199;-79
2021/09/28 06:23:11;;;;;;;;;;;11.80;99.90;;;;;;5064659;28;19924;-79
2021/09/28 06:25:37;;;;;;;;;;;11.80;99.90;;;;;;5065713;28;19973;-79
2021/09/28 06:28:03;;;;;;;;;;;11.80;99.90;;;;;;5063311;28;20288;-79
2021/09/28 06:30:28;;;;;;;;;;;11.80;99.90;;;;;;5062555;28;19917;-79
2021/09/28 06:32:54;;;;;;;;;;;11.90;99.90;;;;;;5064155;28;19999;-79
2021/09/28 06:35:20;;;;;;;;;;;11.90;99.90;;;;;;5064042;28;19912;-79
2021/09/28 06:37:45;;;;;;;;;;;11.90;99.90;;;;;;5064848;28;19921;-79
2021/09/28 06:40:11;;;;;;;;;;;11.90;99.90;;;;;;5060720;28;19924;-79
2021/09/28 06:42:36;;;;;;;;;;;12.00;99.90;;;;;;5048109;28;19912;-78
2021/09/28 06:45:02;;;;;;;;;;;12.00;99.90;;;;;;5056499;28;20326;-79
2021/09/28 06:47:28;;;;;;;;;;;12.00;99.90;;;;;;5040986;28;19917;-78
2021/09/28 06:49:53;;;;;;;;;;;12.10;99.90;;;;;;5063880;28;20311;-79
2021/09/28 06:52:19;;;;;;;;;;;12.20;99.90;;;;;;5064046;28;19920;-79
2021/09/28 06:54:45;;;;;;;;;;;12.50;99.90;;;;;;5062902;28;20185;-79
2021/09/28 06:57:10;;;;;;;;;;;12.80;99.90;;;;;;5063381;28;20034;-79
2021/09/28 06:59:36;;;;;;;;;;;13.20;99.90;;;;;;5062966;28;19916;-78
2021/09/28 07:02:01;;;;;;;;;;;13.80;99.90;;;;;;5043639;28;20263;-79
2021/09/28 07:04:27;;;;;;;;;;;14.40;99.90;;;;;;5063274;28;19952;-75
2021/09/28 07:06:53;;;;;;;;;;;15.00;99.90;;;;;;5060639;28;19955;-79
2021/09/28 07:09:19;;;;;;;;;;;15.50;99.90;;;;;;5035870;28;19928;-79
2021/09/28 07:11:44;;;;;;;;;;;16.00;99.90;;;;;;5062025;28;19919;-80
2021/09/28 07:14:10;;;;;;;;;;;16.40;99.90;;;;;;5064048;28;19923;-79
2021/09/28 07:16:35;;;;;;;;;;;16.80;99.90;;;;;;5037300;28;20275;-77
2021/09/28 07:19:01;;;;;;;;;;;17.00;99.90;;;;;;5061883;28;19967;-79
2021/09/28 07:21:26;;;;;;;;;;;17.20;99.90;;;;;;5062557;28;20016;-78
2021/09/28 07:23:52;;;;;;;;;;;17.30;99.90;;;;;;5063263;28;20015;-79
2021/09/28 07:26:18;;;;;;;;;;;17.30;99.90;;;;;;5042782;28;19917;-79
2021/09/28 07:28:44;;;;;;;;;;;17.30;99.90;;;;;;5043743;28;20274;-80
2021/09/28 07:31:10;;;;;;;;;;;17.30;99.90;;;;;;5061884;28;20362;-80
2021/09/28 07:33:35;;;;;;;;;;;17.40;99.90;;;;;;5062398;28;19983;-77
2021/09/28 07:36:04;;;;;;;;;;;17.40;99.90;;;;;;5046053;28;19916;-80
2021/09/28 07:38:29;;;;;;;;;;;17.50;99.90;;;;;;5060208;28;20323;-80
2021/09/28 07:40:55;;;;;;;;;;;17.70;99.90;;;;;;5062056;28;19923;-79
2021/09/28 07:43:20;;;;;;;;;;;18.00;99.90;;;;;;5062717;28;19927;-80
2021/09/28 07:45:46;;;;;;;;;;;18.40;99.90;;;;;;5041295;28;19966;-79
2021/09/28 07:48:12;;;;;;;;;;;19.00;99.90;;;;;;5042035;28;19967;-80
2021/09/28 07:50:37;;;;;;;;;;;19.50;99.90;;;;;;5062462;28;19917;-79
2021/09/28 07:53:06;;;;;;;;;;;20.30;99.90;;;;;;5063027;28;20315;-80
2021/09/28 07:55:32;;;;;;;;;;;21.20;99.90;;;;;;5062378;28;20344;-81
2021/09/28 07:57:57;;;;;;;;;;;21.80;99.90;;;;;;5062921;28;20031;-80
2021/09/28 08:00:23;;;;;;;;;;;22.20;99.90;;;;;;5045090;28;19944;-82
2021/09/28 08:02:48;;;;;;;;;;;22.50;99.90;;;;;;5043386;28;20220;-81
2021/09/28 08:05:14;;;;;;;;;;;22.50;99.90;;;;;;5057630;28;20280;-81
2021/09/28 08:07:40;;;;;;;;;;;22.40;99.90;;;;;;5045000;28;19920;-80
2021/09/28 08:10:09;;;;;;;;;;;22.30;99.90;;;;;;5059484;28;19925;-82
2021/09/28 08:12:35;;;;;;;;;;;22.10;99.90;;;;;;5043409;28;19928;-82
2021/09/28 08:15:00;;;;;;;;;;;21.70;99.90;;;;;;5044258;28;19917;-81
2021/09/28 08:17:26;;;;;;;;;;;21.50;99.90;;;;;;5059275;28;20311;-75
2021/09/28 08:19:52;;;;;;;;;;;21.60;99.90;;;;;;5057973;28;19917;-84
2021/09/28 08:22:18;;;;;;;;;;;21.60;99.90;;;;;;5044637;28;19932;-82
2021/09/28 08:24:45;;;;;;;;;;;21.60;99.90;;;;;;5040934;28;20007;-82
2021/09/28 08:29:55;;;;;;;;;;;20.90;99.90;;;;;;5061564;28;19928;-82
2021/09/28 08:32:21;;;;;;;;;;;20.20;99.90;;;;;;5043756;28;20212;-83
2021/09/28 08:34:47;;;;;;;;;;;19.60;99.90;;;;;;5042039;28;19920;-82
2021/09/28 08:37:13;;;;;;;;;;;19.30;99.90;;;;;;5064464;28;19917;-82
2021/09/28 08:39:38;;;;;;;;;;;19.10;99.90;;;;;;5064118;28;19913;-82
2021/09/28 08:42:04;;;;;;;;;;;18.90;99.90;;;;;;5064578;28;19984;-82
2021/09/28 08:44:30;;;;;;;;;;;18.80;99.90;;;;;;5044291;28;19917;-82
2021/09/28 08:46:55;;;;;;;;;;;18.70;99.90;;;;;;5061674;28;20008;-77
2021/09/28 08:49:21;;;;;;;;;;;18.50;99.90;;;;;;5061066;28;19943;-81
2021/09/28 08:51:47;;;;;;;;;;;18.40;99.90;;;;;;5044621;28;19917;-82
2021/09/28 08:54:13;;;;;;;;;;;18.40;99.90;;;;;;5051442;28;19967;-82
2021/09/28 08:56:39;;;;;;;;;;;18.40;99.90;;;;;;5048476;28;19920;-84
2021/09/28 08:59:08;;;;;;;;;;;18.50;99.90;;;;;;5034370;28;19967;-81
2021/09/28 09:01:35;;;;;;;;;;;18.50;99.90;;;;;;5053983;28;19920;-83
2021/09/28 09:04:19;;;;;;;;;;;18.70;99.90;;;;;;5053462;28;20130;-81
2021/09/28 09:06:45;;;;;;;;;;;18.90;99.90;;;;;;5036170;28;20009;-82
2021/09/28 09:09:12;;;;;;;;;;;19.10;99.90;;;;;;5042069;28;19999;-84
2021/09/28 09:11:39;;;;;;;;;;;19.00;99.90;;;;;;5036269;28;20248;-82
2021/09/28 09:14:15;;;;;;;;;;;18.80;99.90;;;;;;5050148;28;20316;-82
2021/09/28 09:16:41;;;;;;;;;;;18.80;99.90;;;;;;5068228;28;19920;-82
2021/09/28 09:19:12;;;;;;;;;;;19.00;99.90;;;;;;5031406;28;19913;-82
2021/09/28 09:21:44;;;;;;;;;;;19.00;99.90;;;;;;5054239;28;19995;-82
2021/09/28 09:24:10;;;;;;;;;;;19.00;99.90;;;;;;5060712;28;19929;-82
2021/09/28 09:26:37;;;;;;;;;;;19.10;99.90;;;;;;5035670;28;19927;-76
2021/09/28 09:29:04;;;;;;;;;;;19.00;99.90;;;;;;5056548;28;19916;-82
2021/09/28 09:31:37;;;;;;;;;;;18.90;99.90;;;;;;5039484;28;19920;-80
2021/09/28 09:34:06;;;;;;;;;;;18.90;99.90;;;;;;5065153;28;19913;-82
2021/09/28 09:36:32;;;;;;;;;;;19.00;99.90;;;;;;5034430;28;20226;-83
2021/09/28 09:38:58;;;;;;;;;;;19.00;99.90;;;;;;5047540;28;19913;-84
2021/09/28 09:41:29;;;;;;;;;;;19.00;99.90;;;;;;5035671;28;19964;-83
2021/09/28 09:44:20;;;;;;;;;;;18.90;99.90;;;;;;5033308;28;19992;-81
2021/09/28 09:46:47;;;;;;;;;;;18.80;99.90;;;;;;5031544;28;19928;-80
2021/09/28 09:49:20;;;;;;;;;;;18.70;99.90;;;;;;5048705;28;19998;-80
2021/09/28 09:51:51;;;;;;;;;;;18.70;99.90;;;;;;5035869;28;19928;-80
2021/09/28 09:54:16;;;;;;;;;;;18.70;99.90;;;;;;5050593;28;19917;-81
2021/09/28 09:56:49;;;;;;;;;;;18.80;99.90;;;;;;5050090;28;20450;-81
2021/09/28 09:59:17;;;;;;;;;;;18.70;99.90;;;;;;5051654;28;20223;-81
2021/09/28 10:01:43;;;;;;;;;;;18.70;99.90;;;;;;5033833;28;19921;-80
2021/09/28 10:04:09;;;;;;;;;;;18.70;99.90;;;;;;5050166;28;19945;-83
2021/09/28 10:06:35;;;;;;;;;;;18.70;99.90;;;;;;5044882;28;19924;-81
2021/09/28 10:09:01;;;;;;;;;;;18.70;99.90;;;;;;5049157;28;19917;-80
2021/09/28 10:11:33;;;;;;;;;;;18.70;99.90;;;;;;5058057;28;20315;-80
2021/09/28 10:13:58;;;;;;;;;;;18.70;99.90;;;;;;5059458;28;19917;-80
2021/09/28 10:16:27;;;;;;;;;;;18.60;99.90;;;;;;5056132;28;19927;-81
2021/09/28 10:18:53;;;;;;;;;;;18.60;99.90;;;;;;5054425;28;19920;-81
2021/09/28 10:21:38;;;;;;;;;;;18.70;99.90;;;;;;5048565;28;19967;-80
2021/09/28 10:24:22;;;;;;;;;;;18.70;99.90;;;;;;5045142;28;19949;-81
2021/09/28 10:27:07;;;;;;;;;;;18.60;99.90;;;;;;5037068;28;20303;-80
2021/09/28 10:29:37;;;;;;;;;;;18.60;99.90;;;;;;5037646;28;20220;-81
2021/09/28 10:32:21;;;;;;;;;;;18.70;99.90;;;;;;5053656;28;20060;-82
2021/09/28 10:35:05;;;;;;;;;;;18.70;99.90;;;;;;5052030;28;19919;-84
2021/09/28 10:37:57;;;;;;;;;;;18.80;99.90;;;;;;5036528;28;20015;-81
2021/09/28 10:40:24;;;;;;;;;;;18.90;99.90;;;;;;5039341;28;19966;-81
2021/09/28 10:42:50;;;;;;;;;;;19.00;99.90;;;;;;5036030;28;20412;-80
2021/09/28 10:45:16;;;;;;;;;;;19.20;99.90;;;;;;5055094;28;20019;-77
2021/09/28 10:47:44;;;;;;;;;;;19.20;99.90;;;;;;5039265;28;19913;-81
2021/09/28 10:50:15;;;;;;;;;;;19.40;99.90;;;;;;5049147;28;20304;-81
2021/09/28 10:52:41;;;;;;;;;;;19.50;99.90;;;;;;5036252;28;19928;-80
2021/09/28 10:55:07;;;;;;;;;;;19.60;99.90;;;;;;5053787;28;19916;-79
2021/09/28 10:58:09;;;;;;;;;;;19.60;99.90;;;;;;5032480;28;20287;-80
2021/09/28 11:00:38;;;;;;;;;;;19.50;99.90;;;;;;5038081;28;19920;-82
2021/09/28 11:03:03;;;;;;;;;;;19.50;99.90;;;;;;5053837;28;20027;-82
2021/09/28 11:05:32;;;;;;;;;;;19.30;99.90;;;;;;5053400;28;19991;-82
2021/09/28 11:07:58;;;;;;;;;;;19.20;99.90;;;;;;5033767;28;19919;-82
2021/09/28 11:10:24;;;;;;;;;;;19.10;99.90;;;;;;5036778;28;19927;-81
2021/09/28 11:12:50;;;;;;;;;;;19.00;99.90;;;;;;5054812;28;19917;-81
2021/09/28 11:15:20;;;;;;;;;;;18.90;99.90;;;;;;5063780;28;19948;-78
2021/09/28 11:17:46;;;;;;;;;;;18.80;99.90;;;;;;5038421;28;20308;-79
2021/09/28 11:20:32;;;;;;;;;;;18.70;99.90;;;;;;5039772;28;19924;-81
2021/09/28 11:22:59;;;;;;;;;;;18.70;99.90;;;;;;5058013;28;19913;-81
2021/09/28 11:25:30;;;;;;;;;;;18.70;99.90;;;;;;5062237;28;19923;-81
2021/09/28 11:28:00;;;;;;;;;;;18.60;99.90;;;;;;5063658;28;20243;-77
2021/09/28 11:30:26;;;;;;;;;;;18.60;99.90;;;;;;5061587;28;19924;-80
2021/09/28 11:32:55;;;;;;;;;;;18.50;99.90;;;;;;5060131;28;20011;-80
2021/09/28 11:35:21;;;;;;;;;;;18.60;99.90;;;;;;5064083;28;20291;-80
2021/09/28 11:37:52;;;;;;;;;;;18.80;99.90;;;;;;5062093;28;19919;-81
2021/09/28 11:40:18;;;;;;;;;;;19.00;99.90;;;;;;5061120;28;19928;-80
2021/09/28 11:42:43;;;;;;;;;;;19.10;99.90;;;;;;5062998;28;20231;-84
2021/09/28 11:45:09;;;;;;;;;;;19.20;99.90;;;;;;5064045;28;19917;-80
2021/09/28 11:47:40;;;;;;;;;;;19.30;99.90;;;;;;5061313;28;19916;-81
2021/09/28 11:50:06;;;;;;;;;;;19.30;99.90;;;;;;5060132;28;20243;-76
2021/09/28 11:52:35;;;;;;;;;;;19.30;99.90;;;;;;5063230;28;19912;-80
2021/09/28 11:55:01;;;;;;;;;;;19.30;99.90;;;;;;5058945;28;20334;-81
2021/09/28 11:57:28;;;;;;;;;;;19.20;99.90;;;;;;5063264;28;19921;-81
2021/09/28 11:59:54;;;;;;;;;;;19.20;99.90;;;;;;5059810;28;20304;-80
2021/09/28 12:02:21;;;;;;;;;;;19.30;99.90;;;;;;5058357;28;19920;-81
2021/09/28 12:05:25;;;;;;;;;;;19.30;99.90;;;;;;5063211;28;19912;-79
2021/09/28 12:10:16;;;;;;;;;;;19.20;99.90;;;;;;5054424;28;20039;-77
2021/09/28 12:12:41;;;;;;;;;;;19.20;99.90;;;;;;5059017;28;19912;-82
2021/09/28 12:15:08;;;;;;;;;;;19.20;99.90;;;;;;5062289;28;20350;-79
2021/09/28 12:17:38;;;;;;;;;;;19.40;99.90;;;;;;5062562;28;19959;-80
2021/09/28 12:20:05;;;;;;;;;;;19.40;99.90;;;;;;5073677;28;19917;-80
2021/09/28 12:22:49;;;;;;;;;;;19.50;99.90;;;;;;5059821;28;20047;-83
2021/09/28 12:25:16;;;;;;;;;;;19.50;99.90;;;;;;5061101;28;19928;-81
2021/09/28 12:27:56;;;;;;;;;;;19.60;99.90;;;;;;5062994;28;19912;-83
2021/09/28 12:30:22;;;;;;;;;;;19.60;99.90;;;;;;5059887;28;20006;-81
2021/09/28 12:32:48;;;;;;;;;;;19.70;99.90;;;;;;5063383;28;19975;-80
2021/09/28 12:35:15;;;;;;;;;;;19.70;99.90;;;;;;5062375;28;19913;-80
2021/09/28 12:37:50;;;;;;;;;;;19.70;99.90;;;;;;5060845;28;20007;-81
2021/09/28 12:40:26;;;;;;;;;;;19.70;99.90;;;;;;5041844;28;20330;-81
2021/09/28 12:43:06;;;;;;;;;;;19.60;99.90;;;;;;5060324;28;19921;-84
2021/09/28 12:45:43;;;;;;;;;;;19.60;99.90;;;;;;5058976;28;19959;-80
2021/09/28 12:48:09;;;;;;;;;;;19.70;99.90;;;;;;5058856;28;19913;-82
2021/09/28 12:50:37;;;;;;;;;;;19.80;99.90;;;;;;5058497;28;20257;-81
2021/09/28 12:53:07;;;;;;;;;;;20.00;99.90;;;;;;5035164;28;19959;-81
2021/09/28 12:55:37;;;;;;;;;;;20.20;99.90;;;;;;5060997;28;19932;-80
2021/09/28 12:58:06;;;;;;;;;;;20.20;99.90;;;;;;5057242;28;19917;-81
2021/09/28 13:00:32;;;;;;;;;;;20.30;99.90;;;;;;5036362;28;19955;-80
2021/09/28 13:02:57;;;;;;;;;;;20.40;99.90;;;;;;5057799;28;20390;-80
2021/09/28 13:05:24;;;;;;;;;;;20.40;99.90;;;;;;5038403;28;19912;-83
2021/09/28 13:07:50;;;;;;;;;;;20.50;99.90;;;;;;5039689;28;19912;-85
2021/09/28 13:10:16;;;;;;;;;;;20.40;99.90;;;;;;5053124;28;19971;-80
2021/09/28 13:12:43;;;;;;;;;;;20.30;99.90;;;;;;5049716;28;21323;-83
2021/09/28 13:15:09;;;;;;;;;;;20.30;99.90;;;;;;5023402;28;19917;-82
2021/09/28 13:17:35;;;;;;;;;;;20.20;99.90;;;;;;5051487;28;19924;-81
2021/09/28 13:20:02;;;;;;;;;;;20.00;99.90;;;;;;5040512;28;19913;-84
2021/09/28 13:22:28;;;;;;;;;;;19.80;99.90;;;;;;5057228;28;19962;-82
2021/09/28 13:24:53;;;;;;;;;;;19.70;99.90;;;;;;5053912;28;19925;-82
2021/09/28 13:27:19;;;;;;;;;;;19.60;99.90;;;;;;5049269;28;19917;-82
2021/09/28 13:29:44;;;;;;;;;;;19.60;99.90;;;;;;5052552;28;19960;-82
2021/09/28 13:32:10;;;;;;;;;;;19.50;99.90;;;;;;5053325;28;20023;-82
2021/09/28 13:34:36;;;;;;;;;;;19.50;99.90;;;;;;5055306;28;19920;-78
2021/09/28 13:37:01;;;;;;;;;;;19.60;99.90;;;;;;5038142;28;19968;-83
2021/09/28 13:39:27;;;;;;;;;;;19.70;99.90;;;;;;5057762;28;20007;-80
2021/09/28 13:41:53;;;;;;;;;;;19.80;99.90;;;;;;5056693;28;19921;-79
2021/09/28 13:44:18;;;;;;;;;;;19.90;99.90;;;;;;5059767;28;20382;-81
2021/09/28 13:46:44;;;;;;;;;;;20.00;99.90;;;;;;5058864;28;19917;-80
2021/09/28 13:49:10;;;;;;;;;;;19.90;99.90;;;;;;5059932;28;19948;-83
2021/09/28 13:51:36;;;;;;;;;;;19.90;99.90;;;;;;5038721;28;20324;-82
2021/09/28 13:54:03;;;;;;;;;;;19.80;99.90;;;;;;5052388;28;19921;-83
2021/09/28 13:56:29;;;;;;;;;;;19.80;99.90;;;;;;5034259;28;19913;-83
2021/09/28 13:58:55;;;;;;;;;;;19.80;99.90;;;;;;5051340;28;20224;-81
2021/09/28 14:01:21;;;;;;;;;;;19.70;99.90;;;;;;5052736;28;19921;-82
2021/09/28 14:03:47;;;;;;;;;;;19.60;99.90;;;;;;5052952;28;19974;-83
2021/09/28 14:06:15;;;;;;;;;;;19.50;99.90;;;;;;5037157;28;19913;-81
2021/09/28 14:08:41;;;;;;;;;;;19.50;99.90;;;;;;5039995;28;19956;-83
2021/09/28 14:11:06;;;;;;;;;;;19.60;99.90;;;;;;5040200;28;20015;-75
2021/09/28 14:13:32;;;;;;;;;;;19.60;99.90;;;;;;5044358;28;20004;-82
2021/09/28 14:15:58;;;;;;;;;;;19.60;99.90;;;;;;5038542;28;19919;-82
2021/09/28 14:18:23;;;;;;;;;;;19.60;99.90;;;;;;5055979;28;20058;-83
2021/09/28 14:20:49;;;;;;;;;;;19.50;99.90;;;;;;5039362;28;19920;-81